首页
METAR-TAF:

METAR-TAF

机场 :

Trevico, 意大利

纬度: 41-03N, 经度: 015-14E, 海拔: 1085米

当前天气观测

该预报发布于27分钟前的06:55 UTC
风速13节,风向西
温度 5°C
湿度 56%
气压 1027 hPa
能见度10公里或以上
1500米以下无云,无积雨云

METAR: LIRT 170655Z 26013KT CAVOK 05/M03 Q1027 RMK SKC MON LIB VAL NIL VIS MIN 9999

时间: 08:22 (07:22 UTC)


TAF: 丢失

超过4000个机场的气象观测和天气预报(METAR&TAF报告)。

可查询的气象台以黄色和红色小点在地图上表示。

将鼠标移到小点上方,可查看气象台名称。

然后点击查看天气观测和预报。

如需切换地图:点击带黑十字的绿色按钮放大地图;点击带横线的绿色按钮缩小地图;或者点击绿色箭头查看邻近地区的地图。


METAR-TAF: